createdAt,value
2022-12-17T00:00:34.413Z,24.45
2022-12-17T00:03:24.811Z,25.92
2022-12-17T00:06:15.253Z,24.52
2022-12-17T00:09:05.639Z,26.65
2022-12-17T00:11:53.962Z,28.02
2022-12-17T00:14:48.078Z,26.73
2022-12-17T00:17:35.603Z,27.02
2022-12-17T00:20:23.675Z,26.50
2022-12-17T00:23:22.832Z,27.30
2022-12-17T00:26:14.610Z,26.73
2022-12-17T00:29:01.675Z,27.50
2022-12-17T00:31:53.061Z,26.63
2022-12-17T00:34:47.907Z,30.38
2022-12-17T00:37:37.039Z,31.08
2022-12-17T00:40:34.664Z,32.70
2022-12-17T00:43:31.867Z,30.67
2022-12-17T00:46:19.871Z,31.02
2022-12-17T00:49:08.690Z,29.98
2022-12-17T00:51:59.337Z,30.30
2022-12-17T00:54:50.335Z,30.58
2022-12-17T00:57:39.820Z,30.65
2022-12-17T01:00:30.959Z,33.63
2022-12-17T01:03:28.668Z,35.47
2022-12-17T01:06:19.697Z,36.20
2022-12-17T01:09:05.857Z,37.28
2022-12-17T01:11:56.544Z,37.13
2022-12-17T01:14:54.910Z,37.25
2022-12-17T01:17:43.854Z,35.55
2022-12-17T01:20:33.645Z,34.40
2022-12-17T01:23:19.742Z,34.40
2022-12-17T01:26:17.998Z,33.17
2022-12-17T01:29:10.054Z,32.40
2022-12-17T01:32:02.694Z,30.05
2022-12-17T01:34:58.037Z,30.75
2022-12-17T01:37:47.983Z,29.98
2022-12-17T01:40:42.053Z,27.80
2022-12-17T01:43:34.252Z,32.30
2022-12-17T01:46:24.084Z,32.38
2022-12-17T01:49:14.559Z,35.42
2022-12-17T01:52:05.259Z,36.35
2022-12-17T01:54:56.150Z,35.95
2022-12-17T01:57:48.239Z,36.40
2022-12-17T02:00:39.080Z,35.22
2022-12-17T02:03:33.103Z,35.72
2022-12-17T02:06:42.757Z,34.60
2022-12-17T02:09:30.962Z,35.35
2022-12-17T02:12:46.695Z,35.63
2022-12-17T02:15:40.776Z,33.80
2022-12-17T02:18:35.866Z,30.33
2022-12-17T02:21:28.397Z,32.15
2022-12-17T02:24:50.163Z,27.30
2022-12-17T02:27:44.009Z,28.90
2022-12-17T02:30:34.978Z,30.65
2022-12-17T02:33:40.726Z,29.55
2022-12-17T02:36:29.806Z,32.80
2022-12-17T02:39:21.057Z,28.77
2022-12-17T02:42:12.837Z,25.40
2022-12-17T02:45:03.421Z,25.40
2022-12-17T02:47:51.447Z,25.27
2022-12-17T02:50:40.741Z,22.75
2022-12-17T02:53:30.136Z,21.05
2022-12-17T02:56:20.175Z,18.92
2022-12-17T02:59:11.117Z,17.40
2022-12-17T03:02:03.747Z,16.10
2022-12-17T03:05:00.284Z,14.45
2022-12-17T03:08:00.078Z,12.95
2022-12-17T03:10:48.464Z,13.48
2022-12-17T03:13:46.208Z,13.95
2022-12-17T03:19:25.681Z,12.68
2022-12-17T03:22:16.158Z,11.80
2022-12-17T03:25:03.383Z,12.27
2022-12-17T03:27:52.562Z,12.40
2022-12-17T03:30:39.291Z,14.35
2022-12-17T03:33:33.580Z,15.70
2022-12-17T03:36:21.800Z,20.13
2022-12-17T03:39:11.155Z,20.05
2022-12-17T03:41:58.794Z,19.17
2022-12-17T03:44:45.862Z,22.80
2022-12-17T03:47:33.094Z,26.30
2022-12-17T03:50:18.887Z,29.13
2022-12-17T03:53:12.761Z,30.75
2022-12-17T03:56:02.486Z,30.35
2022-12-17T03:58:50.020Z,30.77
2022-12-17T04:01:37.954Z,33.85
2022-12-17T04:04:26.871Z,36.97
2022-12-17T04:07:15.189Z,35.80
2022-12-17T04:10:01.869Z,36.60
2022-12-17T04:12:57.453Z,38.78
2022-12-17T04:15:47.015Z,36.08
2022-12-17T04:18:33.883Z,34.70
2022-12-17T04:21:22.899Z,36.58
2022-12-17T04:24:12.426Z,31.13
2022-12-17T04:27:01.934Z,27.83
2022-12-17T04:29:50.281Z,26.10
2022-12-17T04:32:39.935Z,25.98
2022-12-17T04:35:29.209Z,21.88
2022-12-17T04:38:19.950Z,21.92
2022-12-17T04:41:09.935Z,18.67
2022-12-17T04:44:02.653Z,17.67
2022-12-17T04:46:56.939Z,10.07
2022-12-17T04:49:48.247Z,7.30
2022-12-17T04:52:37.935Z,6.18
2022-12-17T04:55:25.937Z,5.43
2022-12-17T04:58:15.006Z,5.30
2022-12-17T05:01:03.265Z,5.35
2022-12-17T05:03:51.962Z,4.22
2022-12-17T05:06:39.553Z,4.65
2022-12-17T05:09:26.877Z,4.90
2022-12-17T05:12:16.546Z,4.70
2022-12-17T05:15:07.488Z,4.95
2022-12-17T05:17:56.237Z,5.13
2022-12-17T05:20:46.571Z,5.18
2022-12-17T05:23:35.489Z,5.30
2022-12-17T05:26:51.915Z,5.95
2022-12-17T05:29:40.895Z,5.85
2022-12-17T05:32:27.978Z,6.88
2022-12-17T05:35:19.955Z,7.47
2022-12-17T05:38:08.788Z,6.80
2022-12-17T05:40:55.920Z,7.93
2022-12-17T05:43:43.983Z,7.32
2022-12-17T05:46:29.957Z,8.02
2022-12-17T05:49:17.312Z,8.90
2022-12-17T05:52:06.827Z,9.27
2022-12-17T05:54:56.281Z,8.38
2022-12-17T05:57:45.145Z,9.15
2022-12-17T06:00:34.544Z,9.40
2022-12-17T06:03:24.260Z,9.05
2022-12-17T06:06:16.535Z,8.80
2022-12-17T06:09:06.427Z,10.13
2022-12-17T06:12:02.273Z,9.23
2022-12-17T06:14:51.052Z,9.68
2022-12-17T06:17:42.030Z,9.07
2022-12-17T06:20:30.006Z,8.70
2022-12-17T06:23:27.972Z,9.13
2022-12-17T06:26:20.006Z,8.70
2022-12-17T06:29:23.473Z,9.05
2022-12-17T06:32:12.023Z,9.60
2022-12-17T06:34:59.005Z,8.10
2022-12-17T06:37:49.060Z,9.30
2022-12-17T06:40:40.044Z,9.57
2022-12-17T06:43:45.092Z,8.70
2022-12-17T06:46:33.083Z,9.13
2022-12-17T06:49:21.214Z,9.10
2022-12-17T06:52:10.276Z,10.32
2022-12-17T06:55:12.144Z,9.00
2022-12-17T06:58:07.114Z,8.75
2022-12-17T07:00:57.610Z,9.02
2022-12-17T07:03:50.376Z,9.43
2022-12-17T07:06:38.111Z,9.52
2022-12-17T07:09:27.204Z,10.02
2022-12-17T07:12:20.905Z,9.55
2022-12-17T07:15:09.390Z,11.55
2022-12-17T07:17:56.006Z,14.00
2022-12-17T07:20:48.304Z,17.15
2022-12-17T07:23:39.686Z,17.13
2022-12-17T07:26:29.011Z,18.90
2022-12-17T07:29:18.411Z,20.70
2022-12-17T07:32:06.353Z,21.13
2022-12-17T07:34:55.671Z,23.13
2022-12-17T07:37:45.075Z,22.90
2022-12-17T07:40:33.583Z,24.75
2022-12-17T07:43:32.096Z,25.50
2022-12-17T07:46:24.481Z,24.75
2022-12-17T07:49:13.329Z,26.02
2022-12-17T07:52:03.644Z,23.42
2022-12-17T07:54:53.099Z,25.40
2022-12-17T07:57:42.692Z,24.23
2022-12-17T08:00:34.671Z,23.30
2022-12-17T08:03:26.476Z,23.48
2022-12-17T08:06:19.047Z,24.67
2022-12-17T08:09:09.140Z,24.45
2022-12-17T08:11:59.155Z,23.88
2022-12-17T08:14:47.641Z,24.50
2022-12-17T08:17:36.289Z,24.90
2022-12-17T08:20:26.432Z,26.33
2022-12-17T08:23:19.065Z,25.60
2022-12-17T08:26:10.840Z,26.42
2022-12-17T08:29:03.484Z,26.83
2022-12-17T08:31:52.390Z,27.73
2022-12-17T08:34:39.099Z,28.02
2022-12-17T08:37:26.182Z,28.90
2022-12-17T08:40:16.171Z,28.63
2022-12-17T08:43:04.142Z,29.02
2022-12-17T08:46:03.384Z,29.77
2022-12-17T08:48:51.557Z,29.13
2022-12-17T08:51:40.598Z,28.20
2022-12-17T08:54:29.369Z,29.67
2022-12-17T08:57:30.729Z,29.95
2022-12-17T09:00:19.404Z,31.00
2022-12-17T09:03:10.344Z,30.10
2022-12-17T09:06:02.185Z,30.02
2022-12-17T09:08:52.169Z,31.02
2022-12-17T09:11:41.503Z,30.33
2022-12-17T09:14:29.662Z,30.25
2022-12-17T09:17:17.094Z,31.13
2022-12-17T09:20:08.471Z,30.23
2022-12-17T09:22:55.683Z,29.98
2022-12-17T09:25:44.356Z,29.52
2022-12-17T09:28:32.132Z,29.25
2022-12-17T09:31:20.229Z,29.40
2022-12-17T09:34:09.178Z,29.52
2022-12-17T09:36:59.175Z,30.02
2022-12-17T09:39:47.139Z,30.02
2022-12-17T09:43:05.834Z,31.35
2022-12-17T09:46:04.210Z,30.75
2022-12-17T09:49:19.183Z,29.02
2022-12-17T09:52:06.167Z,29.07
2022-12-17T09:55:27.695Z,29.90
2022-12-17T09:58:23.173Z,28.85
2022-12-17T10:01:11.165Z,29.00
2022-12-17T10:03:59.327Z,29.08
2022-12-17T10:06:48.205Z,28.27
2022-12-17T10:09:40.618Z,30.08
2022-12-17T10:12:40.165Z,28.02
2022-12-17T10:15:37.805Z,28.60
2022-12-17T10:18:29.213Z,28.33
2022-12-17T10:21:28.290Z,29.13
2022-12-17T10:24:30.241Z,29.25
2022-12-17T10:27:16.841Z,28.33
2022-12-17T10:30:07.729Z,28.10
2022-12-17T10:32:58.801Z,25.55
2022-12-17T10:35:57.182Z,27.00
2022-12-17T10:38:52.850Z,25.65
2022-12-17T10:41:54.244Z,27.90
2022-12-17T10:44:44.248Z,27.23
2022-12-17T10:47:46.246Z,26.10
2022-12-17T10:50:46.782Z,25.40
2022-12-17T10:53:44.372Z,24.63
2022-12-17T10:56:48.638Z,25.95
2022-12-17T11:03:12.353Z,26.45
2022-12-17T11:05:59.910Z,25.27
2022-12-17T11:08:51.346Z,26.25
2022-12-17T11:11:38.651Z,26.50
2022-12-17T11:14:28.673Z,26.35
2022-12-17T11:17:24.923Z,25.83
2022-12-17T11:23:31.564Z,30.08
2022-12-17T11:26:31.556Z,30.42
2022-12-17T11:29:23.282Z,29.23
2022-12-17T11:32:38.323Z,29.38
2022-12-17T11:35:54.178Z,23.73
2022-12-17T11:41:56.318Z,29.70
2022-12-17T11:45:30.683Z,30.08
2022-12-17T11:48:27.835Z,29.83
2022-12-17T11:52:01.211Z,29.42
2022-12-17T11:54:58.563Z,30.10
2022-12-17T11:58:23.261Z,28.70
2022-12-17T12:02:03.058Z,29.35
2022-12-17T12:05:37.321Z,29.48
2022-12-17T12:08:59.155Z,28.23
2022-12-17T12:12:19.133Z,29.58
2022-12-17T12:15:41.210Z,28.73
2022-12-17T12:18:55.483Z,28.77
2022-12-17T12:22:15.450Z,30.27
2022-12-17T12:25:38.671Z,29.20
2022-12-17T12:28:52.337Z,27.55
2022-12-17T12:32:23.351Z,22.10
2022-12-17T12:35:13.204Z,27.95
2022-12-17T12:38:02.866Z,26.92
2022-12-17T12:40:55.627Z,29.50
2022-12-17T12:43:52.925Z,28.52
2022-12-17T12:47:03.360Z,32.00
2022-12-17T12:50:27.314Z,31.45
2022-12-17T12:53:17.918Z,29.55
2022-12-17T12:56:07.654Z,30.70
2022-12-17T12:58:54.331Z,32.80
2022-12-17T13:01:55.870Z,30.88
2022-12-17T13:04:58.883Z,30.50
2022-12-17T13:07:29.633Z,31.77
2022-12-17T13:10:03.494Z,31.27
2022-12-17T13:12:50.269Z,31.80
2022-12-17T13:15:30.242Z,32.70
2022-12-17T13:18:09.443Z,31.55
2022-12-17T13:20:37.267Z,31.23
2022-12-17T13:23:38.833Z,31.98
2022-12-17T13:26:42.684Z,31.55
2022-12-17T13:29:33.482Z,32.83
2022-12-17T13:32:03.012Z,32.25
2022-12-17T13:35:10.629Z,32.10
2022-12-17T13:38:12.889Z,31.13
2022-12-17T13:41:12.101Z,30.83
2022-12-17T13:44:01.012Z,30.42
2022-12-17T13:46:52.026Z,32.13
2022-12-17T13:49:31.196Z,32.20
2022-12-17T13:52:20.147Z,32.25
2022-12-17T13:54:49.644Z,33.17
2022-12-17T13:57:20.502Z,32.58
2022-12-17T14:00:11.170Z,33.72
2022-12-17T14:02:42.164Z,32.75
2022-12-17T14:05:27.897Z,33.42
2022-12-17T14:08:04.484Z,32.75
2022-12-17T14:10:33.938Z,32.78
2022-12-17T14:13:18.933Z,32.17
2022-12-17T14:18:21.852Z,31.38
2022-12-17T14:20:58.101Z,33.22
2022-12-17T14:23:35.827Z,30.73
2022-12-17T14:26:03.149Z,32.75
2022-12-17T14:28:30.914Z,32.63
2022-12-17T14:31:29.287Z,32.85
2022-12-17T14:34:19.859Z,31.38
2022-12-17T14:37:00.718Z,31.45
2022-12-17T14:39:31.470Z,32.80
2022-12-17T14:42:26.806Z,33.13
2022-12-17T14:45:33.954Z,31.60
2022-12-17T14:48:18.571Z,32.08
2022-12-17T14:50:55.471Z,31.65
2022-12-17T14:53:28.911Z,33.72
2022-12-17T14:55:57.833Z,33.88
2022-12-17T14:58:27.333Z,32.97
2022-12-17T15:01:17.820Z,32.30
2022-12-17T15:03:49.576Z,32.40
2022-12-17T15:06:20.464Z,32.92
2022-12-17T15:08:50.846Z,31.67
2022-12-17T15:11:22.067Z,34.03
2022-12-17T15:13:54.609Z,32.60
2022-12-17T15:16:27.319Z,34.42
2022-12-17T15:18:58.541Z,35.42
2022-12-17T15:21:27.455Z,31.45
2022-12-17T15:23:56.915Z,33.55
2022-12-17T15:26:28.679Z,34.40
2022-12-17T15:28:58.119Z,33.85
2022-12-17T15:31:35.022Z,35.72
2022-12-17T15:34:02.672Z,32.00
2022-12-17T15:36:32.297Z,32.60
2022-12-17T15:39:00.310Z,33.22
2022-12-17T15:41:49.499Z,35.08
2022-12-17T15:44:20.698Z,34.08
2022-12-17T15:46:50.067Z,35.40
2022-12-17T15:49:23.675Z,32.97
2022-12-17T15:51:50.976Z,33.58
2022-12-17T15:54:22.145Z,32.30
2022-12-17T15:56:58.364Z,31.92
2022-12-17T15:59:28.479Z,33.97
2022-12-17T16:01:58.753Z,34.05
2022-12-17T16:04:27.651Z,34.25
2022-12-17T16:06:57.897Z,31.23
2022-12-17T16:09:28.234Z,34.38
2022-12-17T16:12:01.257Z,32.90
2022-12-17T16:14:35.381Z,32.78
2022-12-17T16:17:05.838Z,31.05
2022-12-17T16:19:33.173Z,33.08
2022-12-17T16:22:01.109Z,34.65
2022-12-17T16:24:29.243Z,32.45
2022-12-17T16:27:04.395Z,33.88
2022-12-17T16:29:33.750Z,34.20
2022-12-17T16:32:01.165Z,35.88
2022-12-17T16:34:32.262Z,34.17
2022-12-17T16:37:01.734Z,35.22
2022-12-17T16:39:40.763Z,35.13
2022-12-17T16:42:09.886Z,34.17
2022-12-17T16:44:37.176Z,34.40
2022-12-17T16:47:13.337Z,33.40
2022-12-17T16:49:44.555Z,32.80
2022-12-17T16:52:12.214Z,34.22
2022-12-17T16:54:40.619Z,33.97
2022-12-17T16:57:08.095Z,33.78
2022-12-17T16:59:36.175Z,35.25
2022-12-17T17:02:07.869Z,34.83
2022-12-17T17:04:39.764Z,33.22
2022-12-17T17:07:09.237Z,34.70
2022-12-17T17:09:39.484Z,31.63
2022-12-17T17:12:09.396Z,34.50
2022-12-17T17:14:36.565Z,34.47
2022-12-17T17:17:09.493Z,34.08
2022-12-17T17:22:21.665Z,33.53
2022-12-17T17:24:49.625Z,33.75
2022-12-17T17:27:19.820Z,33.72
2022-12-17T17:29:50.276Z,33.10
2022-12-17T17:32:24.603Z,38.63
2022-12-17T17:34:52.409Z,33.78
2022-12-17T17:37:22.786Z,34.72
2022-12-17T17:39:50.129Z,33.53
2022-12-17T17:42:18.273Z,34.65
2022-12-17T17:45:09.407Z,35.50
2022-12-17T17:47:36.828Z,34.63
2022-12-17T17:50:04.493Z,34.97
2022-12-17T17:52:35.946Z,34.17
2022-12-17T17:55:06.014Z,34.78
2022-12-17T17:57:33.765Z,32.58
2022-12-17T18:00:02.918Z,34.75
2022-12-17T18:02:34.847Z,33.22
2022-12-17T18:05:08.497Z,35.20
2022-12-17T18:07:37.702Z,32.47
2022-12-17T18:10:08.370Z,32.22
2022-12-17T18:12:59.452Z,35.17
2022-12-17T18:15:30.348Z,35.10
2022-12-17T18:18:00.690Z,35.30
2022-12-17T18:20:31.861Z,33.55
2022-12-17T18:23:01.521Z,34.03
2022-12-17T18:25:35.771Z,33.03
2022-12-17T18:28:08.256Z,33.65
2022-12-17T18:30:38.936Z,35.45
2022-12-17T18:33:16.525Z,34.03
2022-12-17T18:35:44.050Z,32.10
2022-12-17T18:38:12.766Z,33.80
2022-12-17T18:40:44.123Z,32.10
2022-12-17T18:43:31.240Z,30.95
2022-12-17T18:46:08.364Z,33.22
2022-12-17T18:48:38.413Z,30.48
2022-12-17T18:51:06.765Z,31.63
2022-12-17T18:53:37.999Z,31.27
2022-12-17T18:56:31.716Z,29.58
2022-12-17T18:59:08.346Z,28.88
2022-12-17T19:01:40.424Z,29.67
2022-12-17T19:04:15.869Z,30.67
2022-12-17T19:06:46.185Z,28.67
2022-12-17T19:09:38.873Z,31.30
2022-12-17T19:12:11.879Z,28.35
2022-12-17T19:14:42.559Z,29.00
2022-12-17T19:17:11.623Z,28.95
2022-12-17T19:19:42.948Z,29.17
2022-12-17T19:22:12.616Z,28.67
2022-12-17T19:24:43.065Z,29.33
2022-12-17T19:27:11.869Z,29.83
2022-12-17T19:29:48.998Z,31.25
2022-12-17T19:32:21.165Z,31.80
2022-12-17T19:34:52.721Z,30.48
2022-12-17T19:37:21.457Z,30.55
2022-12-17T19:39:49.299Z,29.10
2022-12-17T19:42:37.137Z,30.05
2022-12-17T19:45:08.967Z,31.13
2022-12-17T19:47:38.681Z,31.30
2022-12-17T19:50:11.754Z,30.60
2022-12-17T19:52:41.110Z,30.35
2022-12-17T19:55:09.348Z,29.27
2022-12-17T19:57:40.143Z,29.58
2022-12-17T20:00:08.031Z,29.65
2022-12-17T20:02:45.003Z,30.90
2022-12-17T20:05:12.274Z,31.33
2022-12-17T20:07:40.558Z,31.30
2022-12-17T20:10:16.078Z,29.15
2022-12-17T20:12:45.686Z,28.90
2022-12-17T20:15:14.830Z,28.98
2022-12-17T20:17:44.646Z,30.08
2022-12-17T20:20:17.028Z,29.60
2022-12-17T20:22:49.710Z,29.55
2022-12-17T20:25:18.785Z,31.33
2022-12-17T20:27:48.551Z,29.35
2022-12-17T20:30:19.410Z,30.48
2022-12-17T20:32:50.389Z,29.83
2022-12-17T20:35:21.431Z,29.30
2022-12-17T20:37:49.543Z,26.95
2022-12-17T20:40:21.832Z,28.75
2022-12-17T20:42:53.700Z,28.80
2022-12-17T20:45:23.158Z,30.15
2022-12-17T20:47:50.202Z,28.63
2022-12-17T20:50:23.385Z,29.25
2022-12-17T20:52:54.397Z,29.48
2022-12-17T20:55:29.354Z,29.42
2022-12-17T20:58:02.139Z,27.88
2022-12-17T21:00:29.398Z,31.70
2022-12-17T21:02:59.641Z,31.27
2022-12-17T21:05:29.609Z,30.65
2022-12-17T21:08:01.561Z,30.23
2022-12-17T21:10:33.019Z,30.33
2022-12-17T21:13:22.112Z,28.08
2022-12-17T21:15:56.160Z,31.20
2022-12-17T21:18:28.009Z,30.92
2022-12-17T21:21:03.675Z,30.42
2022-12-17T21:23:33.245Z,31.35
2022-12-17T21:26:15.712Z,30.27
2022-12-17T21:28:47.833Z,31.25
2022-12-17T21:31:27.771Z,32.88
2022-12-17T21:34:00.891Z,33.58
2022-12-17T21:36:33.299Z,32.50
2022-12-17T21:39:03.914Z,31.50
2022-12-17T21:41:44.503Z,33.55
2022-12-17T21:44:14.915Z,31.88
2022-12-17T21:46:49.864Z,31.52
2022-12-17T21:49:20.840Z,32.08
2022-12-17T21:51:48.403Z,31.73
2022-12-17T21:54:20.152Z,31.88
2022-12-17T21:56:48.532Z,32.38
2022-12-17T21:59:18.114Z,30.88
2022-12-17T22:01:46.571Z,33.22
2022-12-17T22:04:17.820Z,31.58
2022-12-17T22:06:48.045Z,33.03
2022-12-17T22:09:49.696Z,32.72
2022-12-17T22:12:44.213Z,31.65
2022-12-17T22:15:12.850Z,31.83
2022-12-17T22:17:45.881Z,31.60
2022-12-17T22:20:19.010Z,30.17
2022-12-17T22:22:50.493Z,30.67
2022-12-17T22:25:18.955Z,29.30
2022-12-17T22:27:46.612Z,29.40
2022-12-17T22:30:39.519Z,28.70
2022-12-17T22:33:19.078Z,27.50
2022-12-17T22:37:19.799Z,28.58
2022-12-17T22:42:08.916Z,27.75
2022-12-17T22:44:49.261Z,26.10
2022-12-17T22:44:57.733Z,26.58
2022-12-17T22:47:32.993Z,26.85
2022-12-17T22:50:03.657Z,27.75
2022-12-17T22:52:35.234Z,27.60
2022-12-17T22:55:04.126Z,27.38
2022-12-17T22:57:36.712Z,27.92
2022-12-17T23:00:24.857Z,27.00
2022-12-17T23:02:59.943Z,27.30
2022-12-17T23:05:32.344Z,26.55
2022-12-17T23:08:01.230Z,26.67
2022-12-17T23:10:32.073Z,27.95
2022-12-17T23:13:07.015Z,26.58
2022-12-17T23:15:37.272Z,25.83
2022-12-17T23:18:12.269Z,26.63
2022-12-17T23:20:44.013Z,28.90
2022-12-17T23:23:15.227Z,26.02
2022-12-17T23:25:47.143Z,25.67
2022-12-17T23:28:17.793Z,26.00
2022-12-17T23:30:46.421Z,27.25
2022-12-17T23:33:16.944Z,27.33
2022-12-17T23:35:45.565Z,27.35
2022-12-17T23:38:19.320Z,27.15
2022-12-17T23:40:46.555Z,22.30
2022-12-17T23:43:17.950Z,28.08
2022-12-17T23:45:47.907Z,28.92
2022-12-17T23:48:17.372Z,28.15
2022-12-17T23:50:46.712Z,28.50
2022-12-17T23:53:16.087Z,27.60
2022-12-17T23:55:45.225Z,26.20
2022-12-17T23:58:12.625Z,24.02
